createdAt,value
2023-02-05T00:00:23.365Z,31.2
2023-02-05T00:05:46.143Z,31.1
2023-02-05T00:11:24.638Z,31.1
2023-02-05T00:16:47.155Z,31.1
2023-02-05T00:22:24.851Z,31.1
2023-02-05T00:28:03.926Z,31
2023-02-05T00:33:42.246Z,30.9
2023-02-05T00:39:20.605Z,30.9
2023-02-05T00:44:58.697Z,30.9
2023-02-05T00:50:36.752Z,30.9
2023-02-05T00:56:15.881Z,30.8
2023-02-05T01:01:54.775Z,30.8
2023-02-05T01:07:31.950Z,30.8
2023-02-05T01:13:09.860Z,30.8
2023-02-05T01:18:47.980Z,30.7
2023-02-05T01:24:26.286Z,30.7
2023-02-05T01:30:04.707Z,30.6
2023-02-05T01:35:43.392Z,30.6
2023-02-05T01:41:21.314Z,30.6
2023-02-05T01:46:44.046Z,30.6
2023-02-05T01:52:36.657Z,30.5
2023-02-05T01:58:13.705Z,30.4
2023-02-05T02:03:50.658Z,30.8
2023-02-05T02:09:29.318Z,31.5
2023-02-05T02:15:07.062Z,32.1
2023-02-05T02:20:44.620Z,32.8
2023-02-05T02:26:23.312Z,33.4
2023-02-05T02:31:46.543Z,34.1
2023-02-05T02:37:24.465Z,34.8
2023-02-05T02:42:46.994Z,35.4
2023-02-05T02:48:25.673Z,36.1
2023-02-05T02:53:32.279Z,36.7
2023-02-05T02:58:55.048Z,37.4
2023-02-05T03:04:22.785Z,38
2023-02-05T03:09:45.410Z,38.6
2023-02-05T03:14:37.410Z,39.3
2023-02-05T03:20:15.344Z,39.9
2023-02-05T03:25:37.724Z,40.5
2023-02-05T03:31:16.386Z,41.2
2023-02-05T03:36:38.899Z,41.4
2023-02-05T03:42:17.078Z,41.6
2023-02-05T03:47:55.272Z,41.6
2023-02-05T03:53:23.348Z,41.7
2023-02-05T03:59:00.449Z,41.8
2023-02-05T04:04:38.713Z,41.8
2023-02-05T04:09:45.758Z,41.8
2023-02-05T04:15:09.328Z,41.7
2023-02-05T04:20:32.500Z,41.7
2023-02-05T04:26:10.555Z,41.7
2023-02-05T04:31:49.010Z,41.6
2023-02-05T04:37:27.920Z,41.6
2023-02-05T04:43:05.165Z,41.6
2023-02-05T04:48:27.506Z,41.6
2023-02-05T04:54:05.012Z,41.5
2023-02-05T04:59:42.968Z,41.4
2023-02-05T05:05:05.468Z,41.4
2023-02-05T05:10:43.430Z,41.4
2023-02-05T05:16:06.113Z,41.3
2023-02-05T05:21:44.319Z,41.3
2023-02-05T05:27:22.294Z,41.3
2023-02-05T05:33:00.323Z,41.2
2023-02-05T05:38:38.217Z,41.1
2023-02-05T05:44:16.344Z,41.1
2023-02-05T05:49:54.183Z,41
2023-02-05T05:55:31.792Z,40.9
2023-02-05T06:01:10.385Z,40.9
2023-02-05T06:06:47.690Z,40.9
2023-02-05T06:12:28.143Z,40.8
2023-02-05T06:17:51.386Z,40.8
2023-02-05T06:23:29.118Z,40.7
2023-02-05T06:29:07.221Z,40.6
2023-02-05T06:34:45.697Z,40.6
2023-02-05T06:40:37.901Z,40.5
2023-02-05T06:46:16.522Z,40.4
2023-02-05T06:51:55.179Z,40.4
2023-02-05T06:57:17.330Z,40.3
2023-02-05T07:02:55.646Z,40.3
2023-02-05T07:08:34.050Z,40.2
2023-02-05T07:13:57.150Z,40.1
2023-02-05T07:19:35.124Z,40.1
2023-02-05T07:24:57.650Z,40
2023-02-05T07:30:35.759Z,39.9
2023-02-05T07:36:14.098Z,39.9
2023-02-05T07:41:37.274Z,39.8
2023-02-05T07:47:00.339Z,39.8
2023-02-05T07:52:38.964Z,39.8
2023-02-05T07:58:31.432Z,39.7
2023-02-05T08:04:08.965Z,39.6
2023-02-05T08:09:47.804Z,39.6
2023-02-05T08:15:33.015Z,39.5
2023-02-05T08:21:11.454Z,39.4
2023-02-05T08:26:49.428Z,39.4
2023-02-05T08:32:27.616Z,39.3
2023-02-05T08:37:34.691Z,39.3
2023-02-05T08:43:12.557Z,39.2
2023-02-05T08:49:02.461Z,39.2
2023-02-05T08:54:42.053Z,39.1
2023-02-05T09:00:21.120Z,39.1
2023-02-05T09:06:11.348Z,39
2023-02-05T09:24:31.065Z,38.8
2023-02-05T09:30:09.809Z,38.8
2023-02-05T09:35:48.119Z,38.7
2023-02-05T09:42:30.768Z,38.6
2023-02-05T09:48:10.033Z,38.6
2023-02-05T09:53:49.032Z,38.6
2023-02-05T09:59:35.071Z,38.5
2023-02-05T10:05:13.730Z,38.4
2023-02-05T10:10:34.909Z,38.4
2023-02-05T10:16:13.465Z,38.3
2023-02-05T10:21:51.587Z,38.3
2023-02-05T10:27:29.965Z,38.3
2023-02-05T10:33:08.975Z,38.2
2023-02-05T10:38:47.562Z,38.1
2023-02-05T10:44:08.981Z,38.1
2023-02-05T10:49:51.029Z,38.1
2023-02-05T10:55:28.985Z,38
2023-02-05T11:01:06.797Z,37.9
2023-02-05T11:06:45.295Z,37.9
2023-02-05T11:12:09.332Z,37.8
2023-02-05T11:17:47.676Z,37.8
2023-02-05T11:23:25.986Z,37.8
2023-02-05T11:29:04.779Z,37.7
2023-02-05T11:35:07.326Z,37.6
2023-02-05T11:40:30.544Z,37.6
2023-02-05T11:46:09.441Z,37.6
2023-02-05T11:51:31.828Z,37.5
2023-02-05T11:57:12.761Z,37.4
2023-02-05T12:03:00.163Z,37.4
2023-02-05T12:08:37.151Z,37.4
2023-02-05T12:14:18.467Z,37.3
2023-02-05T12:19:56.805Z,37.3
2023-02-05T12:25:33.950Z,37.2
2023-02-05T12:30:57.048Z,37.1
2023-02-05T12:36:36.056Z,37.1
2023-02-05T12:42:11.888Z,36.9
2023-02-05T12:47:50.811Z,36.8
2023-02-05T12:53:28.557Z,36.7
2023-02-05T12:59:05.954Z,36.6
2023-02-05T13:04:44.672Z,35.4
2023-02-05T13:10:23.280Z,34.2
2023-02-05T13:16:01.630Z,33.8
2023-02-05T13:21:40.140Z,32.9
2023-02-05T13:27:25.258Z,31.8
2023-02-05T13:33:07.909Z,30.4
2023-02-05T13:38:46.440Z,29.8
2023-02-05T13:44:28.204Z,29.1
2023-02-05T13:50:07.612Z,28.6
2023-02-05T13:55:46.103Z,28.3
2023-02-05T14:01:09.235Z,28.2
2023-02-05T14:06:47.412Z,28.1
2023-02-05T14:12:37.283Z,28
2023-02-05T14:18:15.992Z,27.9
2023-02-05T14:29:19.723Z,27.7
2023-02-05T14:34:55.469Z,27.7
2023-02-05T14:40:33.193Z,27.6
2023-02-05T14:46:02.062Z,27.6
2023-02-05T14:51:40.599Z,27.5
2023-02-05T14:57:02.795Z,27.5
2023-02-05T15:02:43.963Z,27.4
2023-02-05T15:07:51.088Z,27.4
2023-02-05T15:13:29.437Z,27.4
2023-02-05T15:19:07.862Z,27.4
2023-02-05T15:24:36.617Z,26.3
2023-02-05T15:30:15.087Z,25.1
2023-02-05T15:35:37.958Z,24.6
2023-02-05T15:41:16.226Z,24.1
2023-02-05T15:46:54.034Z,23.3
2023-02-05T15:52:31.689Z,22.7
2023-02-05T15:57:54.281Z,22.3
2023-02-05T16:03:32.955Z,21.7
2023-02-05T16:08:55.590Z,21.3
2023-02-05T16:14:34.401Z,20.9
2023-02-05T16:19:57.132Z,20.6
2023-02-05T16:25:35.672Z,20.2
2023-02-05T16:31:11.286Z,19.9
2023-02-05T16:36:49.695Z,19.6
2023-02-05T16:42:12.911Z,19.4
2023-02-05T16:47:50.992Z,19.1
2023-02-05T16:53:29.112Z,18.9
2023-02-05T16:58:51.808Z,18.8
2023-02-05T17:04:31.490Z,18.4
2023-02-05T17:09:53.842Z,18.1
2023-02-05T17:15:17.186Z,17.9
2023-02-05T17:20:55.647Z,17.7
2023-02-05T17:26:17.880Z,17.6
2023-02-05T17:31:56.782Z,17.4
2023-02-05T17:37:38.020Z,17.4
2023-02-05T17:43:18.992Z,17.3
2023-02-05T17:48:57.282Z,17.2
2023-02-05T17:54:20.392Z,17.1
2023-02-05T17:59:27.118Z,17.1
2023-02-05T18:05:05.841Z,17.1
2023-02-05T18:27:09.037Z,16.9
2023-02-05T18:32:35.325Z,16.9
2023-02-05T18:37:59.614Z,16.9
2023-02-05T18:43:37.978Z,16.9
2023-02-05T18:49:00.629Z,16.9
2023-02-05T18:54:26.013Z,16.9
2023-02-05T19:00:04.247Z,16.8
2023-02-05T19:05:27.121Z,16.8
2023-02-05T19:11:05.080Z,16.8
2023-02-05T19:16:45.181Z,16.8
2023-02-05T19:22:24.974Z,16.8
2023-02-05T19:28:02.405Z,16.8
2023-02-05T19:33:42.063Z,16.8
2023-02-05T19:39:19.843Z,16.8
2023-02-05T19:44:57.801Z,16.8
2023-02-05T19:50:20.981Z,16.8
2023-02-05T19:56:00.536Z,16.8
2023-02-05T20:01:23.939Z,16.9
2023-02-05T20:06:48.531Z,16.8
2023-02-05T20:12:28.215Z,16.8
2023-02-05T20:18:05.278Z,17.2
2023-02-05T20:23:58.210Z,18.5
2023-02-05T20:29:36.522Z,20.2
2023-02-05T20:35:15.262Z,21.9
2023-02-05T20:40:54.004Z,23.9
2023-02-05T20:46:32.341Z,25.8
2023-02-05T20:52:09.143Z,26.9
2023-02-05T20:57:47.385Z,28.6
2023-02-05T21:03:25.919Z,30.2
2023-02-05T21:09:05.368Z,31.7
2023-02-05T21:14:43.446Z,32.8
2023-02-05T21:19:50.921Z,33.3
2023-02-05T21:25:29.161Z,33.4
2023-02-05T21:30:53.636Z,33.5
2023-02-05T21:36:31.547Z,33.6
2023-02-05T21:42:05.942Z,33.6
2023-02-05T21:47:44.406Z,33.6
2023-02-05T21:53:06.693Z,33.6
2023-02-05T21:58:44.710Z,33.6
2023-02-05T22:04:07.865Z,33.6
2023-02-05T22:09:02.280Z,33.6
2023-02-05T22:14:39.860Z,33.6
2023-02-05T22:20:18.509Z,33.6
2023-02-05T22:25:56.540Z,33.6
2023-02-05T22:31:35.546Z,33.6
2023-02-05T22:36:59.289Z,33.6
2023-02-05T22:42:37.320Z,33.5
2023-02-05T22:48:15.570Z,33.5
2023-02-05T22:53:37.858Z,33.4
2023-02-05T22:59:19.420Z,33.4
2023-02-05T23:04:41.818Z,33.4
2023-02-05T23:10:07.458Z,33.4
2023-02-05T23:15:45.009Z,33.3
2023-02-05T23:21:22.526Z,33.3
2023-02-05T23:27:01.101Z,33.3
2023-02-05T23:32:24.411Z,33.2
2023-02-05T23:38:02.590Z,33.1
2023-02-05T23:43:40.586Z,33.1
2023-02-05T23:49:18.339Z,33
2023-02-05T23:54:55.981Z,32.9
